createdAt,value
2019-06-07T00:00:39.555Z,19.86
2019-06-07T00:03:04.641Z,19.78
2019-06-07T00:05:34.924Z,19.73
2019-06-07T00:08:09.733Z,19.74
2019-06-07T00:10:37.289Z,19.53
2019-06-07T00:13:07.128Z,19.38
2019-06-07T00:15:36.814Z,19.24
2019-06-07T00:18:11.144Z,19.15
2019-06-07T00:20:38.238Z,19.05
2019-06-07T00:23:12.284Z,19.02
2019-06-07T00:25:42.305Z,18.92
2019-06-07T00:28:13.261Z,18.86
2019-06-07T00:30:51.534Z,18.80
2019-06-07T00:33:18.442Z,18.69
2019-06-07T00:35:46.671Z,18.56
2019-06-07T00:38:20.456Z,18.54
2019-06-07T00:40:48.451Z,18.55
2019-06-07T00:43:22.809Z,18.62
2019-06-07T00:45:49.645Z,18.68
2019-06-07T00:48:28.791Z,18.63
2019-06-07T00:50:50.831Z,18.65
2019-06-07T00:53:31.085Z,18.68
2019-06-07T00:55:51.959Z,18.57
2019-06-07T00:58:27.501Z,18.42
2019-06-07T01:00:53.446Z,18.35
2019-06-07T01:03:25.717Z,18.40
2019-06-07T01:05:54.586Z,18.38
2019-06-07T01:08:28.264Z,18.31
2019-06-07T01:10:55.745Z,18.30
2019-06-07T01:13:26.966Z,18.28
2019-06-07T01:15:56.929Z,18.32
2019-06-07T01:18:37.898Z,18.33
2019-06-07T01:20:58.089Z,18.36
2019-06-07T01:24:04.764Z,18.32
2019-06-07T01:25:59.205Z,18.24
2019-06-07T01:28:30.161Z,18.20
2019-06-07T01:31:00.050Z,18.28
2019-06-07T01:33:49.757Z,18.44
2019-06-07T01:36:01.148Z,18.62
2019-06-07T01:38:30.858Z,18.75
2019-06-07T01:41:00.561Z,18.82
2019-06-07T01:43:31.269Z,18.91
2019-06-07T01:46:01.210Z,18.89
2019-06-07T01:48:48.467Z,18.90
2019-06-07T01:51:02.352Z,19.00
2019-06-07T01:53:32.051Z,19.02
2019-06-07T01:56:01.735Z,18.99
2019-06-07T01:58:31.434Z,19.02
2019-06-07T02:01:01.205Z,19.06
2019-06-07T02:03:33.312Z,19.10
2019-06-07T02:06:03.121Z,19.13
2019-06-07T02:08:34.415Z,19.19
2019-06-07T02:11:04.699Z,19.19
2019-06-07T02:13:34.410Z,19.13
2019-06-07T02:16:04.232Z,19.11
2019-06-07T02:18:35.052Z,19.16
2019-06-07T02:21:05.005Z,19.18
2019-06-07T02:23:34.742Z,19.22
2019-06-07T02:26:04.942Z,19.22
2019-06-07T02:28:44.921Z,19.24
2019-06-07T02:31:06.168Z,19.25
2019-06-07T02:33:40.277Z,19.16
2019-06-07T02:36:07.329Z,19.12
2019-06-07T02:38:37.799Z,19.12
2019-06-07T02:41:08.553Z,19.13
2019-06-07T02:43:39.088Z,19.19
2019-06-07T02:46:26.379Z,19.27
2019-06-07T02:48:44.877Z,19.28
2019-06-07T02:51:14.746Z,19.35
2019-06-07T02:53:44.500Z,19.46
2019-06-07T02:58:45.657Z,19.65
2019-06-07T03:01:15.617Z,19.80
2019-06-07T03:03:46.879Z,19.90
2019-06-07T03:06:17.241Z,20.02
2019-06-07T03:08:47.524Z,20.09
2019-06-07T03:11:17.668Z,20.12
2019-06-07T03:13:49.513Z,20.08
2019-06-07T03:16:22.024Z,20.03
2019-06-07T03:19:00.602Z,19.96
2019-06-07T03:21:33.878Z,20.02
2019-06-07T03:24:04.842Z,20.07
2019-06-07T03:26:58.014Z,20.09
2019-06-07T03:29:06.915Z,19.97
2019-06-07T03:31:41.514Z,20.02
2019-06-07T03:34:08.615Z,20.11
2019-06-07T03:36:40.337Z,20.11
2019-06-07T03:39:10.797Z,20.11
2019-06-07T03:42:02.465Z,20.17
2019-06-07T03:44:13.227Z,20.19
2019-06-07T03:46:43.558Z,20.22
2019-06-07T03:49:13.862Z,20.20
2019-06-07T03:51:44.151Z,20.16
2019-06-07T03:54:14.483Z,20.21
2019-06-07T03:56:45.019Z,20.33
2019-06-07T03:59:16.352Z,20.38
2019-06-07T04:01:46.675Z,20.17
2019-06-07T04:04:16.985Z,20.08
2019-06-07T04:06:47.272Z,20.06
2019-06-07T04:09:17.615Z,19.93
2019-06-07T04:11:47.899Z,19.81
2019-06-07T04:14:18.196Z,19.87
2019-06-07T04:16:47.892Z,19.71
2019-06-07T04:19:18.196Z,19.73
2019-06-07T04:21:48.506Z,20.01
2019-06-07T04:24:18.799Z,20.20
2019-06-07T04:26:49.090Z,20.31
2019-06-07T04:30:02.089Z,20.33
2019-06-07T04:31:51.422Z,20.38
2019-06-07T04:34:21.740Z,20.39
2019-06-07T04:36:59.036Z,20.35
2019-06-07T04:39:26.602Z,20.23
2019-06-07T04:41:59.026Z,20.09
2019-06-07T04:44:31.183Z,19.93
2019-06-07T04:47:04.714Z,19.93
2019-06-07T04:49:38.144Z,20.03
2019-06-07T04:52:08.628Z,20.26
2019-06-07T04:54:45.568Z,20.39
2019-06-07T04:57:10.965Z,20.60
2019-06-07T05:00:11.378Z,20.69
2019-06-07T05:02:13.983Z,20.68
2019-06-07T05:04:44.276Z,20.75
2019-06-07T05:07:14.637Z,20.75
2019-06-07T05:09:44.704Z,20.82
2019-06-07T05:12:14.992Z,20.96
2019-06-07T05:14:45.288Z,21.07
2019-06-07T05:17:15.586Z,21.12
2019-06-07T05:19:45.880Z,21.25
2019-06-07T05:22:16.194Z,21.34
2019-06-07T05:24:46.463Z,21.41
2019-06-07T05:27:16.785Z,21.43
2019-06-07T05:30:08.827Z,21.44
2019-06-07T05:32:19.467Z,21.45
2019-06-07T05:34:51.700Z,21.48
2019-06-07T05:37:23.899Z,21.52
2019-06-07T05:39:56.657Z,21.68
2019-06-07T05:42:28.133Z,21.74
2019-06-07T05:44:59.057Z,21.80
2019-06-07T05:47:30.031Z,21.82
2019-06-07T05:50:00.565Z,21.98
2019-06-07T05:52:32.830Z,22.15
2019-06-07T05:55:03.026Z,22.30
2019-06-07T05:57:36.337Z,22.41
2019-06-07T06:00:08.219Z,22.54
2019-06-07T06:03:01.055Z,22.64
2019-06-07T06:05:32.650Z,22.67
2019-06-07T06:07:50.204Z,22.81
2019-06-07T06:10:17.349Z,23.07
2019-06-07T06:12:51.794Z,23.38
2019-06-07T06:15:19.787Z,23.72
2019-06-07T06:17:53.902Z,23.99
2019-06-07T06:20:24.219Z,24.09
2019-06-07T06:22:54.727Z,24.19
2019-06-07T06:25:33.773Z,24.39
2019-06-07T06:28:10.060Z,24.51
2019-06-07T06:30:29.721Z,24.61
2019-06-07T06:33:00.300Z,24.69
2019-06-07T06:35:30.750Z,24.89
2019-06-07T06:38:01.265Z,25.08
2019-06-07T06:40:31.687Z,25.23
2019-06-07T06:43:02.146Z,25.32
2019-06-07T06:45:32.494Z,25.57
2019-06-07T06:48:02.869Z,25.68
2019-06-07T06:50:33.177Z,25.82
2019-06-07T06:53:03.470Z,25.91
2019-06-07T06:55:33.744Z,25.95
2019-06-07T06:58:04.084Z,25.82
2019-06-07T07:00:53.870Z,26.01
2019-06-07T07:03:56.674Z,26.03
2019-06-07T07:05:54.597Z,26.27
2019-06-07T07:08:23.088Z,26.48
2019-06-07T07:10:55.078Z,26.64
2019-06-07T07:13:27.085Z,26.72
2019-06-07T07:15:58.551Z,26.86
2019-06-07T07:18:29.153Z,26.63
2019-06-07T07:20:59.465Z,26.20
2019-06-07T07:23:29.851Z,25.73
2019-06-07T07:26:00.367Z,25.85
2019-06-07T07:28:30.822Z,26.01
2019-06-07T07:31:01.158Z,26.28
2019-06-07T07:34:20.771Z,26.40
2019-06-07T07:36:19.058Z,26.67
2019-06-07T07:38:35.503Z,26.78
2019-06-07T07:41:14.648Z,27.19
2019-06-07T07:43:37.936Z,27.74
2019-06-07T07:46:28.341Z,28.29
2019-06-07T07:48:41.597Z,28.22
2019-06-07T07:51:12.779Z,28.59
2019-06-07T07:53:52.023Z,29.04
2019-06-07T07:56:16.229Z,29.06
2019-06-07T07:58:50.403Z,29.33
2019-06-07T08:01:18.654Z,29.72
2019-06-07T08:03:50.553Z,30.16
2019-06-07T08:06:21.109Z,29.89
2019-06-07T08:08:53.782Z,30.47
2019-06-07T08:11:23.398Z,31.14
2019-06-07T08:13:57.001Z,31.18
2019-06-07T08:16:25.633Z,31.31
2019-06-07T08:18:58.608Z,31.53
2019-06-07T08:21:28.107Z,31.40
2019-06-07T08:24:03.666Z,30.77
2019-06-07T08:26:30.363Z,30.74
2019-06-07T08:29:02.915Z,31.09
2019-06-07T08:31:32.783Z,31.79
2019-06-07T08:34:03.151Z,32.04
2019-06-07T08:36:41.956Z,31.93
2019-06-07T08:39:08.019Z,32.61
2019-06-07T08:41:53.464Z,32.91
2019-06-07T08:44:23.250Z,33.21
2019-06-07T08:46:42.551Z,32.94
2019-06-07T08:49:12.827Z,31.96
2019-06-07T08:51:43.330Z,30.88
2019-06-07T08:54:22.462Z,30.50
2019-06-07T08:56:45.627Z,30.04
2019-06-07T08:59:15.894Z,29.31
2019-06-07T09:01:46.193Z,28.92
2019-06-07T09:04:16.499Z,29.10
2019-06-07T09:07:07.469Z,29.24
2019-06-07T09:09:18.829Z,29.52
2019-06-07T09:11:49.150Z,29.86
2019-06-07T09:14:19.371Z,30.31
2019-06-07T09:16:55.369Z,30.19
2019-06-07T09:19:27.295Z,30.24
2019-06-07T09:22:04.590Z,30.66
2019-06-07T09:24:29.590Z,31.81
2019-06-07T09:27:02.422Z,33.33
2019-06-07T09:29:32.967Z,34.30
2019-06-07T09:32:10.624Z,34.41
2019-06-07T09:34:36.738Z,35.99
2019-06-07T09:37:54.515Z,38.27
2019-06-07T09:39:39.575Z,39.14
2019-06-07T09:42:12.382Z,39.15
2019-06-07T09:44:41.862Z,39.76
2019-06-07T09:47:30.697Z,40.82
2019-06-07T09:49:44.193Z,41.77
2019-06-07T09:52:14.485Z,41.42
2019-06-07T09:57:17.917Z,42.34
2019-06-07T09:59:48.480Z,43.17
2019-06-07T10:02:19.257Z,44.09
2019-06-07T10:04:49.529Z,44.50
2019-06-07T10:07:31.313Z,45.01
2019-06-07T10:12:24.931Z,45.51
2019-06-07T10:14:55.648Z,46.23
2019-06-07T10:17:26.827Z,46.51
2019-06-07T10:19:59.986Z,46.98
2019-06-07T10:22:29.821Z,47.45
2019-06-07T10:25:01.906Z,47.09
2019-06-07T10:27:32.913Z,45.27
2019-06-07T10:30:04.099Z,42.04
2019-06-07T10:32:35.006Z,39.52
2019-06-07T10:35:10.185Z,37.88
2019-06-07T10:37:40.698Z,38.06
2019-06-07T10:40:13.321Z,40.25
2019-06-07T10:42:44.101Z,41.09
2019-06-07T10:45:15.126Z,40.11
2019-06-07T10:47:45.703Z,37.99
2019-06-07T10:50:17.642Z,35.98
2019-06-07T10:52:48.753Z,34.43
2019-06-07T10:55:19.516Z,33.79
2019-06-07T10:57:50.629Z,33.42
2019-06-07T11:00:22.294Z,33.17
2019-06-07T11:02:55.206Z,33.36
2019-06-07T11:05:25.641Z,33.73
2019-06-07T11:08:00.494Z,34.00
2019-06-07T11:10:29.519Z,33.62
2019-06-07T11:13:00.422Z,33.86
2019-06-07T11:15:31.198Z,35.02
2019-06-07T11:18:02.007Z,35.15
2019-06-07T11:20:36.817Z,34.91
2019-06-07T11:23:08.242Z,34.95
2019-06-07T11:25:39.200Z,34.33
2019-06-07T11:28:12.527Z,34.06
2019-06-07T11:30:43.772Z,33.98
2019-06-07T11:33:16.386Z,34.28
2019-06-07T11:35:48.749Z,35.02
2019-06-07T11:38:22.067Z,36.00
2019-06-07T11:40:52.635Z,38.64
2019-06-07T11:43:23.528Z,41.24
2019-06-07T11:45:55.374Z,42.71
2019-06-07T11:48:28.722Z,43.43
2019-06-07T11:50:59.904Z,44.87
2019-06-07T11:53:30.721Z,47.03
2019-06-07T11:56:01.120Z,48.51
2019-06-07T11:58:31.402Z,50.09
2019-06-07T12:01:01.382Z,51.29
2019-06-07T12:03:31.365Z,52.80
2019-06-07T12:06:01.364Z,53.06
2019-06-07T12:08:31.360Z,52.07
2019-06-07T12:11:01.316Z,48.96
2019-06-07T12:13:31.305Z,49.26
2019-06-07T12:16:01.360Z,51.04
2019-06-07T12:18:31.346Z,49.72
2019-06-07T12:21:01.317Z,48.76
2019-06-07T12:23:31.321Z,48.28
2019-06-07T12:26:01.581Z,44.76
2019-06-07T12:28:31.857Z,42.42
2019-06-07T12:31:02.136Z,41.06
2019-06-07T12:33:32.398Z,43.87
2019-06-07T12:36:02.682Z,47.63
2019-06-07T12:38:32.966Z,49.89
2019-06-07T12:41:02.978Z,51.25
2019-06-07T12:43:32.938Z,50.96
2019-06-07T12:46:02.918Z,50.07
2019-06-07T12:48:32.909Z,49.04
2019-06-07T12:51:02.877Z,49.35
2019-06-07T12:53:32.852Z,50.32
2019-06-07T12:56:02.846Z,51.26
2019-06-07T12:58:36.167Z,50.74
2019-06-07T13:01:04.926Z,48.69
2019-06-07T13:03:34.962Z,48.56
2019-06-07T13:06:05.004Z,48.98
2019-06-07T13:08:35.048Z,45.74
2019-06-07T13:11:14.835Z,47.45
2019-06-07T13:13:36.935Z,47.07
2019-06-07T13:16:06.973Z,46.94
2019-06-07T13:18:36.947Z,48.65
2019-06-07T13:21:08.559Z,50.86
2019-06-07T13:23:38.543Z,52.05
2019-06-07T13:26:08.508Z,52.06
2019-06-07T13:28:38.538Z,52.19
2019-06-07T13:31:08.536Z,53.48
2019-06-07T13:33:39.143Z,53.45
2019-06-07T13:36:09.368Z,53.66
2019-06-07T13:38:40.384Z,53.06
2019-06-07T13:41:10.363Z,53.52
2019-06-07T13:43:40.384Z,53.64
2019-06-07T13:46:13.002Z,51.71
2019-06-07T13:48:42.090Z,50.40
2019-06-07T13:51:12.129Z,50.44
2019-06-07T13:53:42.101Z,50.66
2019-06-07T13:56:12.068Z,50.55
2019-06-07T13:58:42.020Z,49.86
2019-06-07T14:01:12.015Z,50.24
2019-06-07T14:03:42.010Z,50.41
2019-06-07T14:06:11.971Z,50.55
2019-06-07T14:08:41.940Z,49.97
2019-06-07T14:11:12.025Z,47.07
2019-06-07T14:13:42.321Z,44.16
2019-06-07T14:16:12.620Z,45.34
2019-06-07T14:18:42.952Z,45.38
2019-06-07T14:21:13.170Z,46.97
2019-06-07T14:23:49.173Z,48.72
2019-06-07T14:26:15.150Z,50.00
2019-06-07T14:28:45.109Z,50.87
2019-06-07T14:31:15.091Z,50.54
2019-06-07T14:33:45.076Z,50.33
2019-06-07T14:36:15.032Z,49.00
2019-06-07T14:38:45.020Z,47.40
2019-06-07T14:41:15.286Z,46.67
2019-06-07T14:43:45.591Z,47.23
2019-06-07T14:46:15.818Z,48.00
2019-06-07T14:48:45.809Z,48.07
2019-06-07T14:51:16.083Z,48.49
2019-06-07T14:53:46.511Z,48.86
2019-06-07T14:56:16.490Z,48.52
2019-06-07T14:58:46.463Z,48.73
2019-06-07T15:01:16.420Z,48.67
2019-06-07T15:03:46.399Z,49.03
2019-06-07T15:06:16.431Z,48.88
2019-06-07T15:08:46.737Z,48.27
2019-06-07T15:11:17.057Z,47.34
2019-06-07T15:13:47.350Z,47.59
2019-06-07T15:16:17.628Z,47.25
2019-06-07T15:18:47.883Z,47.48
2019-06-07T15:21:18.143Z,47.40
2019-06-07T15:23:48.414Z,46.76
2019-06-07T15:26:18.711Z,46.27
2019-06-07T15:28:49.016Z,45.39
2019-06-07T15:31:19.243Z,44.72
2019-06-07T15:33:49.533Z,45.05
2019-06-07T15:36:19.499Z,44.79
2019-06-07T15:38:50.004Z,43.90
2019-06-07T15:41:21.164Z,43.38
2019-06-07T15:43:51.442Z,43.34
2019-06-07T15:46:21.714Z,41.59
2019-06-07T15:48:51.968Z,40.96
2019-06-07T15:51:22.234Z,41.27
2019-06-07T15:53:52.650Z,41.76
2019-06-07T15:56:22.919Z,41.45
2019-06-07T15:58:53.199Z,41.33
2019-06-07T16:01:23.447Z,41.40
2019-06-07T16:03:54.767Z,40.76
2019-06-07T16:06:25.008Z,40.04
2019-06-07T16:08:55.254Z,39.42
2019-06-07T16:11:25.542Z,38.51
2019-06-07T16:13:55.783Z,37.41
2019-06-07T16:16:26.456Z,35.64
2019-06-07T16:18:57.400Z,34.09
2019-06-07T16:21:27.603Z,33.07
2019-06-07T16:23:58.136Z,32.44
2019-06-07T16:26:29.024Z,32.00
2019-06-07T16:28:59.289Z,31.66
2019-06-07T16:31:29.510Z,31.35
2019-06-07T16:33:59.780Z,31.10
2019-06-07T16:36:30.065Z,30.90
2019-06-07T16:39:00.305Z,30.76
2019-06-07T16:41:30.591Z,30.56
2019-06-07T16:44:05.098Z,30.39
2019-06-07T16:46:36.594Z,30.27
2019-06-07T16:49:07.024Z,30.19
2019-06-07T16:51:37.275Z,30.11
2019-06-07T16:54:07.538Z,30.04
2019-06-07T16:56:43.368Z,29.96
2019-06-07T16:59:09.793Z,29.93
2019-06-07T17:01:41.108Z,29.86
2019-06-07T17:04:11.400Z,29.75
2019-06-07T17:06:41.750Z,29.69
2019-06-07T17:09:12.159Z,29.69
2019-06-07T17:11:42.433Z,29.65
2019-06-07T17:14:12.671Z,29.58
2019-06-07T17:16:43.275Z,29.51
2019-06-07T17:19:13.966Z,29.45
2019-06-07T17:21:45.412Z,29.42
2019-06-07T17:24:17.051Z,29.36
2019-06-07T17:26:47.741Z,29.30
2019-06-07T17:29:18.068Z,29.29
2019-06-07T17:31:48.314Z,29.27
2019-06-07T17:34:18.548Z,29.23
2019-06-07T17:36:48.813Z,29.16
2019-06-07T17:39:19.146Z,29.09
2019-06-07T17:41:59.958Z,29.03
2019-06-07T17:44:21.419Z,28.96
2019-06-07T17:46:51.870Z,28.86
2019-06-07T17:49:22.233Z,28.79
2019-06-07T17:51:52.504Z,28.69
2019-06-07T17:54:22.777Z,28.59
2019-06-07T17:56:53.383Z,28.54
2019-06-07T17:59:23.839Z,28.51
2019-06-07T18:02:13.328Z,28.36
2019-06-07T18:04:26.234Z,28.25
2019-06-07T18:06:57.457Z,28.17
2019-06-07T18:09:28.546Z,28.12
2019-06-07T18:11:58.805Z,28.07
2019-06-07T18:14:29.069Z,28.00
2019-06-07T18:16:59.393Z,27.95
2019-06-07T18:19:29.731Z,27.89
2019-06-07T18:22:00.534Z,27.80
2019-06-07T18:24:30.724Z,27.72
2019-06-07T18:27:02.189Z,27.62
2019-06-07T18:29:33.194Z,27.57
2019-06-07T18:32:03.496Z,27.50
2019-06-07T18:34:33.740Z,27.43
2019-06-07T18:37:04.039Z,27.36
2019-06-07T18:39:34.288Z,27.32
2019-06-07T18:42:04.558Z,27.28
2019-06-07T18:44:34.886Z,27.25
2019-06-07T18:47:05.248Z,27.09
2019-06-07T18:49:36.205Z,27.02
2019-06-07T18:52:14.244Z,26.94
2019-06-07T18:54:44.509Z,26.88
2019-06-07T18:57:14.758Z,26.76
2019-06-07T18:59:45.087Z,26.69
2019-06-07T19:02:15.368Z,26.59
2019-06-07T19:04:45.612Z,26.54
2019-06-07T19:07:15.878Z,26.50
2019-06-07T19:09:46.158Z,26.41
2019-06-07T19:12:16.482Z,26.37
2019-06-07T19:14:46.771Z,26.33
2019-06-07T19:17:17.037Z,26.26
2019-06-07T19:19:47.294Z,26.15
2019-06-07T19:22:17.577Z,26.10
2019-06-07T19:24:47.845Z,25.99
2019-06-07T19:27:18.188Z,25.94
2019-06-07T19:29:48.473Z,25.87
2019-06-07T19:32:18.744Z,25.87
2019-06-07T19:34:49.004Z,25.81
2019-06-07T19:37:19.298Z,25.74
2019-06-07T19:39:49.559Z,25.67
2019-06-07T19:42:19.904Z,25.62
2019-06-07T19:44:55.378Z,25.57
2019-06-07T19:47:22.244Z,25.56
2019-06-07T19:49:53.070Z,25.53
2019-06-07T19:52:23.517Z,25.44
2019-06-07T19:54:54.335Z,25.42
2019-06-07T19:57:26.040Z,25.38
2019-06-07T19:59:57.396Z,25.37
2019-06-07T20:02:27.887Z,25.35
2019-06-07T20:05:01.324Z,25.32
2019-06-07T20:07:30.162Z,25.23
2019-06-07T20:10:00.719Z,25.21
2019-06-07T20:12:32.684Z,25.21
2019-06-07T20:15:25.266Z,25.19
2019-06-07T20:17:34.945Z,25.14
2019-06-07T20:20:08.951Z,25.12
2019-06-07T20:22:39.532Z,25.01
2019-06-07T20:25:10.502Z,24.95
2019-06-07T20:27:40.870Z,24.86
2019-06-07T20:30:13.490Z,24.84
2019-06-07T20:32:43.762Z,24.83
2019-06-07T20:35:14.551Z,24.86
2019-06-07T20:37:44.789Z,24.81
2019-06-07T20:40:24.300Z,24.80
2019-06-07T20:42:47.649Z,24.78
2019-06-07T20:45:32.538Z,24.71
2019-06-07T20:47:50.350Z,24.64
2019-06-07T20:50:20.685Z,24.61
2019-06-07T20:52:50.989Z,24.53
2019-06-07T20:55:21.333Z,24.52
2019-06-07T20:57:51.571Z,24.52
2019-06-07T21:00:22.539Z,24.54
2019-06-07T21:02:53.803Z,24.50
2019-06-07T21:05:24.072Z,24.47
2019-06-07T21:07:54.399Z,24.52
2019-06-07T21:10:24.729Z,24.56
2019-06-07T21:12:55.011Z,24.56
2019-06-07T21:15:25.387Z,24.56
2019-06-07T21:17:55.692Z,24.61
2019-06-07T21:20:25.990Z,24.64
2019-06-07T21:22:56.241Z,24.65
2019-06-07T21:25:26.521Z,24.62
2019-06-07T21:27:56.755Z,24.66
2019-06-07T21:30:27.021Z,24.64
2019-06-07T21:32:57.294Z,24.66
2019-06-07T21:35:27.564Z,24.67
2019-06-07T21:37:57.796Z,24.63
2019-06-07T21:40:28.107Z,24.58
2019-06-07T21:42:58.367Z,24.48
2019-06-07T21:45:28.632Z,24.35
2019-06-07T21:47:58.920Z,24.23
2019-06-07T21:50:29.264Z,24.13
2019-06-07T21:52:59.495Z,24.06
2019-06-07T21:55:29.809Z,24.03
2019-06-07T21:58:00.079Z,24.05
2019-06-07T22:00:53.741Z,24.03
2019-06-07T22:03:24.063Z,23.99
2019-06-07T22:05:54.351Z,23.97
2019-06-07T22:08:24.605Z,23.97
2019-06-07T22:10:54.998Z,24.00
2019-06-07T22:13:25.258Z,24.03
2019-06-07T22:15:55.550Z,24.04
2019-06-07T22:18:25.803Z,24.04
2019-06-07T22:20:56.091Z,24.07
2019-06-07T22:23:26.354Z,24.16
2019-06-07T22:25:56.682Z,24.42
2019-06-07T22:28:26.921Z,24.73
2019-06-07T22:30:57.248Z,25.01
2019-06-07T22:33:27.602Z,25.02
2019-06-07T22:35:57.956Z,24.97
2019-06-07T22:38:28.227Z,24.80
2019-06-07T22:40:58.597Z,24.68
2019-06-07T22:43:28.879Z,24.55
2019-06-07T22:45:59.262Z,24.44
2019-06-07T22:48:29.508Z,24.37
2019-06-07T22:51:01.481Z,24.27
2019-06-07T22:53:31.755Z,24.16
2019-06-07T22:56:03.691Z,24.07
2019-06-07T22:58:33.983Z,23.96
2019-06-07T23:01:04.375Z,23.86
2019-06-07T23:03:34.903Z,23.72
2019-06-07T23:06:05.183Z,23.63
2019-06-07T23:08:35.574Z,23.53
2019-06-07T23:11:06.015Z,23.40
2019-06-07T23:13:36.245Z,23.35
2019-06-07T23:16:06.668Z,23.37
2019-06-07T23:18:37.003Z,23.45
2019-06-07T23:21:07.391Z,23.40
2019-06-07T23:23:37.730Z,23.39
2019-06-07T23:26:08.179Z,23.40
2019-06-07T23:28:38.459Z,23.36
2019-06-07T23:31:08.734Z,23.29
2019-06-07T23:33:39.044Z,23.18
2019-06-07T23:36:10.896Z,23.11
2019-06-07T23:38:41.347Z,23.12
2019-06-07T23:41:11.650Z,23.14
2019-06-07T23:43:43.305Z,23.12
2019-06-07T23:46:13.602Z,23.11
2019-06-07T23:48:43.862Z,23.06
2019-06-07T23:51:15.538Z,23.05
2019-06-07T23:53:45.921Z,23.05
2019-06-07T23:56:16.216Z,22.94
2019-06-07T23:58:46.480Z,22.85
